createdAt,value
2022-07-29T00:01:02.487Z,102026.66
2022-07-29T00:03:29.765Z,102032.25
2022-07-29T00:05:56.774Z,102019.13
2022-07-29T00:08:23.884Z,102016.00
2022-07-29T00:10:52.179Z,102018.44
2022-07-29T00:13:19.024Z,102014.84
2022-07-29T00:16:04.579Z,102014.03
2022-07-29T00:18:33.054Z,102008.81
2022-07-29T00:21:00.402Z,102010.06
2022-07-29T00:23:27.282Z,102008.91
2022-07-29T00:25:54.355Z,102004.16
2022-07-29T00:28:21.395Z,102003.75
2022-07-29T00:30:48.180Z,101992.59
2022-07-29T00:33:14.997Z,101989.50
2022-07-29T00:35:44.709Z,101985.16
2022-07-29T00:38:17.750Z,101985.16
2022-07-29T00:40:45.622Z,101984.00
2022-07-29T00:43:14.632Z,101984.41
2022-07-29T00:45:44.463Z,101974.88
2022-07-29T00:48:11.845Z,101970.50
2022-07-29T00:50:39.665Z,101967.28
2022-07-29T00:53:08.330Z,101965.25
2022-07-29T00:55:35.837Z,101971.28
2022-07-29T00:58:03.783Z,101958.50
2022-07-29T01:00:31.302Z,101963.72
2022-07-29T01:02:58.870Z,101958.09
2022-07-29T01:05:49.883Z,101958.09
2022-07-29T01:08:17.226Z,101965.69
2022-07-29T01:10:45.227Z,101970.06
2022-07-29T01:13:12.920Z,101955.34
2022-07-29T01:15:49.492Z,101962.09
2022-07-29T01:18:25.208Z,101964.88
2022-07-29T01:21:34.143Z,101962.47
2022-07-29T01:24:41.054Z,101961.28
2022-07-29T01:27:26.595Z,101957.28
2022-07-29T01:30:00.730Z,101953.31
2022-07-29T01:32:30.133Z,101956.88
2022-07-29T01:34:59.599Z,101955.72
2022-07-29T01:37:30.928Z,101949.78
2022-07-29T01:40:00.054Z,101944.19
2022-07-29T01:42:48.967Z,101941.78
2022-07-29T01:45:35.403Z,101939.78
2022-07-29T01:48:12.897Z,101935.38
2022-07-29T01:50:58.621Z,101931.78
2022-07-29T01:53:34.868Z,101927.03
2022-07-29T01:56:07.691Z,101924.63
2022-07-29T01:58:37.764Z,101925.81
2022-07-29T02:01:06.339Z,101917.44
2022-07-29T02:03:36.716Z,101919.88
2022-07-29T02:06:04.540Z,101919.41
2022-07-29T02:08:33.771Z,101922.22
2022-07-29T02:11:04.318Z,101919.41
2022-07-29T02:13:33.125Z,101911.84
2022-07-29T02:16:03.231Z,101899.91
2022-07-29T02:18:31.797Z,101901.47
2022-07-29T02:21:01.061Z,101895.13
2022-07-29T02:23:28.496Z,101892.75
2022-07-29T02:26:00.146Z,101883.97
2022-07-29T02:28:29.600Z,101886.41
2022-07-29T02:31:03.324Z,101876.03
2022-07-29T02:33:32.706Z,101880.47
2022-07-29T02:36:02.633Z,101872.13
2022-07-29T02:38:49.876Z,101870.94
2022-07-29T02:41:21.030Z,101880.47
2022-07-29T02:43:51.292Z,101872.53
2022-07-29T02:46:29.781Z,101887.22
2022-07-29T02:49:03.088Z,101882.84
2022-07-29T02:51:43.858Z,101877.28
2022-07-29T02:54:21.446Z,101876.84
2022-07-29T02:56:50.047Z,101878.81
2022-07-29T02:59:23.180Z,101870.84
2022-07-29T03:01:51.335Z,101880.00
2022-07-29T03:04:21.551Z,101875.63
2022-07-29T03:06:51.427Z,101869.63
2022-07-29T03:09:18.704Z,101866.44
2022-07-29T03:11:49.769Z,101871.22
2022-07-29T03:14:21.834Z,101872.81
2022-07-29T03:16:50.254Z,101869.63
2022-07-29T03:19:18.387Z,101864.84
2022-07-29T03:21:45.466Z,101856.84
2022-07-29T03:24:26.084Z,101859.22
2022-07-29T03:26:53.168Z,101859.22
2022-07-29T03:29:20.123Z,101863.16
2022-07-29T03:31:46.993Z,101852.00
2022-07-29T03:34:15.784Z,101857.97
2022-07-29T03:36:42.946Z,101857.56
2022-07-29T03:39:11.594Z,101859.19
2022-07-29T03:41:40.062Z,101859.19
2022-07-29T03:44:08.908Z,101860.03
2022-07-29T03:46:36.863Z,101853.66
2022-07-29T03:49:06.443Z,101855.59
2022-07-29T03:51:34.369Z,101859.19
2022-07-29T03:54:09.322Z,101856.41
2022-07-29T03:56:41.883Z,101850.44
2022-07-29T03:59:09.432Z,101848.09
2022-07-29T04:01:37.432Z,101845.28
2022-07-29T04:04:05.689Z,101840.53
2022-07-29T04:06:43.270Z,101835.31
2022-07-29T04:09:10.790Z,101838.88
2022-07-29T04:12:01.448Z,101840.84
2022-07-29T04:14:27.324Z,101842.03
2022-07-29T04:16:54.137Z,101843.63
2022-07-29T04:19:21.277Z,101842.03
2022-07-29T04:21:48.094Z,101848.03
2022-07-29T04:24:15.188Z,101841.28
2022-07-29T04:26:42.345Z,101845.66
2022-07-29T04:29:09.288Z,101845.66
2022-07-29T04:31:36.143Z,101845.66
2022-07-29T04:34:03.051Z,101838.50
2022-07-29T04:36:30.231Z,101841.75
2022-07-29T04:38:57.332Z,101845.75
2022-07-29T04:41:32.858Z,101847.72
2022-07-29T04:44:06.001Z,101848.59
2022-07-29T04:46:34.874Z,101847.38
2022-07-29T04:49:02.319Z,101842.25
2022-07-29T04:51:29.326Z,101845.03
2022-07-29T04:53:56.310Z,101842.75
2022-07-29T04:56:23.280Z,101843.22
2022-07-29T04:58:50.193Z,101841.25
2022-07-29T05:01:17.058Z,101841.69
2022-07-29T05:03:43.982Z,101840.50
2022-07-29T05:06:10.841Z,101832.22
2022-07-29T05:08:37.830Z,101833.88
2022-07-29T05:11:12.189Z,101838.28
2022-07-29T05:13:45.853Z,101834.72
2022-07-29T05:16:14.908Z,101837.22
2022-07-29T05:18:42.505Z,101838.06
2022-07-29T05:21:09.266Z,101836.03
2022-07-29T05:23:36.670Z,101838.84
2022-07-29T05:26:03.581Z,101844.47
2022-07-29T05:28:33.749Z,101840.13
2022-07-29T05:31:00.596Z,101837.78
2022-07-29T05:33:35.002Z,101838.63
2022-07-29T05:36:07.995Z,101845.41
2022-07-29T05:38:38.662Z,101854.72
2022-07-29T05:41:06.800Z,101841.19
2022-07-29T05:43:33.870Z,101847.69
2022-07-29T05:46:01.384Z,101846.53
2022-07-29T05:48:28.487Z,101855.72
2022-07-29T05:50:55.801Z,101855.75
2022-07-29T05:53:23.480Z,101848.59
2022-07-29T05:55:51.212Z,101849.06
2022-07-29T05:58:18.105Z,101864.66
2022-07-29T06:00:45.585Z,101860.69
2022-07-29T06:03:12.548Z,101865.50
2022-07-29T06:05:39.403Z,101871.59
2022-07-29T06:08:09.520Z,101871.97
2022-07-29T06:10:36.892Z,101871.25
2022-07-29T06:13:04.074Z,101872.44
2022-07-29T06:15:31.665Z,101872.47
2022-07-29T06:18:00.641Z,101883.31
2022-07-29T06:20:31.459Z,101876.94
2022-07-29T06:22:58.805Z,101867.38
2022-07-29T06:25:25.763Z,101859.81
2022-07-29T06:27:53.258Z,101860.22
2022-07-29T06:30:20.701Z,101865.81
2022-07-29T06:32:48.174Z,101865.03
2022-07-29T06:35:39.490Z,101860.22
2022-07-29T06:38:03.595Z,101862.22
2022-07-29T06:40:54.670Z,101851.88
2022-07-29T06:43:21.835Z,101850.25
2022-07-29T06:45:50.074Z,101858.25
2022-07-29T06:48:16.919Z,101854.66
2022-07-29T06:50:44.206Z,101859.44
2022-07-29T06:53:11.127Z,101858.66
2022-07-29T06:55:38.297Z,101861.47
2022-07-29T06:58:05.243Z,101862.66
2022-07-29T07:00:32.127Z,101864.66
2022-07-29T07:02:58.985Z,101868.25
2022-07-29T07:05:25.976Z,101870.25
2022-07-29T07:07:52.932Z,101871.41
2022-07-29T07:10:19.974Z,101875.81
2022-07-29T07:12:46.826Z,101876.25
2022-07-29T07:15:13.690Z,101881.09
2022-07-29T07:17:40.640Z,101883.88
2022-07-29T07:20:08.369Z,101884.28
2022-07-29T07:22:38.857Z,101875.88
2022-07-29T07:25:06.529Z,101876.28
2022-07-29T07:27:33.470Z,101877.09
2022-07-29T07:30:00.476Z,101864.25
2022-07-29T07:32:27.361Z,101869.81
2022-07-29T07:34:54.864Z,101876.56
2022-07-29T07:37:22.266Z,101883.38
2022-07-29T07:39:49.873Z,101880.97
2022-07-29T07:42:16.728Z,101880.16
2022-07-29T07:45:10.999Z,101878.94
2022-07-29T07:47:30.615Z,101870.53
2022-07-29T07:50:01.612Z,101868.13
2022-07-29T07:52:28.524Z,101876.59
2022-07-29T07:54:55.567Z,101873.34
2022-07-29T07:57:22.442Z,101876.91
2022-07-29T07:59:49.477Z,101880.44
2022-07-29T08:02:17.085Z,101875.94
2022-07-29T08:04:44.130Z,101881.47
2022-07-29T08:07:11.077Z,101875.78
2022-07-29T08:09:38.113Z,101882.22
2022-07-29T08:12:06.706Z,101886.09
2022-07-29T08:14:34.497Z,101888.72
2022-07-29T08:17:01.629Z,101885.91
2022-07-29T08:19:28.721Z,101883.81
2022-07-29T08:21:56.054Z,101882.56
2022-07-29T08:24:42.156Z,101880.50
2022-07-29T08:27:26.939Z,101885.91
2022-07-29T08:29:57.018Z,101870.53
2022-07-29T08:32:50.869Z,101885.31
2022-07-29T08:35:10.984Z,101891.47
2022-07-29T08:37:37.842Z,101879.72
2022-07-29T08:40:05.132Z,101879.44
2022-07-29T08:42:32.200Z,101886.41
2022-07-29T08:44:59.772Z,101883.91
2022-07-29T08:47:28.757Z,101878.09
2022-07-29T08:49:55.804Z,101879.44
2022-07-29T08:52:26.181Z,101878.84
2022-07-29T08:54:54.117Z,101870.16
2022-07-29T08:57:24.262Z,101880.66
2022-07-29T08:59:55.869Z,101870.81
2022-07-29T09:02:24.154Z,101872.59
2022-07-29T09:04:51.570Z,101869.31
2022-07-29T09:07:20.046Z,101870.72
2022-07-29T09:09:47.890Z,101877.97
2022-07-29T09:12:29.057Z,101868.06
2022-07-29T09:14:57.108Z,101876.03
2022-07-29T09:17:45.128Z,101874.44
2022-07-29T09:20:21.186Z,101877.72
2022-07-29T09:22:50.947Z,101874.63
2022-07-29T09:25:34.703Z,101869.53
2022-07-29T09:28:13.707Z,101865.16
2022-07-29T09:30:54.634Z,101872.78
2022-07-29T09:33:23.176Z,101878.53
2022-07-29T09:36:09.894Z,101873.25
2022-07-29T09:38:38.404Z,101868.47
2022-07-29T09:41:09.013Z,101868.38
2022-07-29T09:43:36.076Z,101869.81
2022-07-29T09:46:15.906Z,101860.03
2022-07-29T09:48:42.935Z,101860.34
2022-07-29T09:51:28.320Z,101858.63
2022-07-29T09:54:24.002Z,101859.03
2022-07-29T09:56:51.643Z,101855.75
2022-07-29T09:59:18.719Z,101864.78
2022-07-29T10:01:47.958Z,101858.34
2022-07-29T10:04:15.163Z,101861.44
2022-07-29T10:07:05.225Z,101862.50
2022-07-29T10:09:33.940Z,101859.09
2022-07-29T10:12:10.182Z,101853.47
2022-07-29T10:14:37.648Z,101858.97
2022-07-29T10:17:06.958Z,101850.75
2022-07-29T10:19:35.273Z,101843.44
2022-07-29T10:22:05.087Z,101843.91
2022-07-29T10:24:33.363Z,101843.25
2022-07-29T10:27:02.704Z,101837.03
2022-07-29T10:29:32.375Z,101835.38
2022-07-29T10:32:22.754Z,101833.97
2022-07-29T10:35:13.180Z,101827.84
2022-07-29T10:37:55.026Z,101826.47
2022-07-29T10:41:21.264Z,101829.34
2022-07-29T10:43:51.400Z,101835.59
2022-07-29T10:46:19.900Z,101832.44
2022-07-29T10:49:15.627Z,101837.34
2022-07-29T10:52:01.182Z,101841.22
2022-07-29T10:54:37.425Z,101851.38
2022-07-29T10:57:54.054Z,101849.72
2022-07-29T11:00:29.560Z,101850.13
2022-07-29T11:02:59.358Z,101849.97
2022-07-29T11:05:32.256Z,101843.53
2022-07-29T11:08:20.350Z,101845.56
2022-07-29T11:10:54.340Z,101846.31
2022-07-29T11:13:43.240Z,101842.19
2022-07-29T11:16:10.237Z,101841.91
2022-07-29T11:19:13.862Z,101836.16
2022-07-29T11:21:55.096Z,101830.00
2022-07-29T11:24:35.622Z,101821.66
2022-07-29T11:27:13.546Z,101812.50
2022-07-29T11:29:50.055Z,101809.72
2022-07-29T11:32:22.776Z,101809.09
2022-07-29T11:35:17.463Z,101806.72
2022-07-29T11:37:52.275Z,101807.59
2022-07-29T11:40:23.226Z,101808.53
2022-07-29T11:42:52.434Z,101815.00
2022-07-29T11:45:42.786Z,101809.41
2022-07-29T11:48:28.774Z,101812.97
2022-07-29T11:50:58.536Z,101804.22
2022-07-29T11:53:26.014Z,101817.25
2022-07-29T11:55:58.317Z,101808.88
2022-07-29T11:58:26.367Z,101822.06
2022-07-29T12:00:55.716Z,101816.00
2022-07-29T12:03:34.991Z,101815.91
2022-07-29T12:06:03.220Z,101819.88
2022-07-29T12:08:30.868Z,101826.66
2022-07-29T12:10:58.617Z,101823.25
2022-07-29T12:13:31.223Z,101823.06
2022-07-29T12:16:06.063Z,101818.59
2022-07-29T12:18:33.371Z,101818.03
2022-07-29T12:21:04.926Z,101818.00
2022-07-29T12:23:34.859Z,101822.34
2022-07-29T12:26:07.287Z,101821.84
2022-07-29T12:28:39.812Z,101820.53
2022-07-29T12:31:08.308Z,101826.78
2022-07-29T12:33:36.264Z,101828.69
2022-07-29T12:36:10.435Z,101825.56
2022-07-29T12:38:41.932Z,101829.13
2022-07-29T12:41:08.928Z,101829.53
2022-07-29T12:43:36.056Z,101831.16
2022-07-29T12:46:16.134Z,101829.19
2022-07-29T12:48:44.677Z,101838.13
2022-07-29T12:51:15.307Z,101839.69
2022-07-29T12:53:42.668Z,101838.66
2022-07-29T12:56:41.262Z,101842.91
2022-07-29T12:59:13.564Z,101832.91
2022-07-29T13:01:40.621Z,101846.41
2022-07-29T13:04:07.676Z,101846.19
2022-07-29T13:06:41.880Z,101847.06
2022-07-29T13:09:12.794Z,101844.22
2022-07-29T13:11:51.674Z,101841.00
2022-07-29T13:14:32.841Z,101832.81
2022-07-29T13:17:07.754Z,101830.94
2022-07-29T13:19:41.578Z,101825.88
2022-07-29T13:22:13.236Z,101827.88
2022-07-29T13:24:48.393Z,101823.38
2022-07-29T13:27:16.856Z,101825.88
2022-07-29T13:29:44.111Z,101823.94
2022-07-29T13:32:13.300Z,101821.06
2022-07-29T13:34:41.828Z,101827.28
2022-07-29T13:37:08.733Z,101834.00
2022-07-29T13:39:35.736Z,101819.97
2022-07-29T13:42:02.679Z,101822.28
2022-07-29T13:44:29.518Z,101823.00
2022-07-29T13:46:57.186Z,101821.34
2022-07-29T13:49:24.531Z,101824.53
2022-07-29T13:51:51.613Z,101819.84
2022-07-29T13:54:18.598Z,101815.41
2022-07-29T13:56:46.286Z,101813.03
2022-07-29T13:59:14.059Z,101809.97
2022-07-29T14:01:44.653Z,101819.66
2022-07-29T14:04:12.692Z,101808.91
2022-07-29T14:06:40.849Z,101814.81
2022-07-29T14:09:09.942Z,101814.38
2022-07-29T14:11:39.381Z,101821.94
2022-07-29T14:14:06.609Z,101818.06
2022-07-29T14:16:37.033Z,101815.06
2022-07-29T14:19:06.355Z,101820.66
2022-07-29T14:21:36.009Z,101813.91
2022-07-29T14:24:05.159Z,101819.13
2022-07-29T14:26:46.331Z,101813.91
2022-07-29T14:29:13.886Z,101812.31
2022-07-29T14:31:41.169Z,101814.59
2022-07-29T14:34:08.419Z,101806.56
2022-07-29T14:36:36.035Z,101816.75
2022-07-29T14:39:03.617Z,101809.34
2022-07-29T14:41:31.152Z,101804.78
2022-07-29T14:44:04.188Z,101805.66
2022-07-29T14:46:31.869Z,101807.16
2022-07-29T14:48:59.478Z,101811.81
2022-07-29T14:51:32.186Z,101811.00
2022-07-29T14:53:59.966Z,101809.78
2022-07-29T14:56:37.017Z,101812.06
2022-07-29T14:59:04.889Z,101807.34
2022-07-29T15:01:32.139Z,101804.78
2022-07-29T15:04:00.006Z,101803.84
2022-07-29T15:06:27.999Z,101809.56
2022-07-29T15:08:55.304Z,101809.13
2022-07-29T15:11:22.833Z,101802.91
2022-07-29T15:13:49.875Z,101804.72
2022-07-29T15:16:18.196Z,101801.63
2022-07-29T15:18:45.059Z,101794.13
2022-07-29T15:21:12.174Z,101796.75
2022-07-29T15:23:39.861Z,101802.28
2022-07-29T15:26:06.748Z,101803.81
2022-07-29T15:28:34.135Z,101804.47
2022-07-29T15:31:01.689Z,101802.88
2022-07-29T15:33:29.132Z,101786.91
2022-07-29T15:35:57.359Z,101785.47
2022-07-29T15:38:28.555Z,101797.31
2022-07-29T15:40:56.291Z,101796.69
2022-07-29T15:43:24.645Z,101797.03
2022-07-29T15:46:12.311Z,101784.13
2022-07-29T15:48:40.851Z,101786.69
2022-07-29T15:51:08.242Z,101794.44
2022-07-29T15:53:35.580Z,101777.75
2022-07-29T15:56:02.790Z,101780.91
2022-07-29T15:58:30.801Z,101777.53
2022-07-29T16:00:58.407Z,101776.75
2022-07-29T16:03:26.192Z,101777.25
2022-07-29T16:05:53.609Z,101779.19
2022-07-29T16:08:21.715Z,101777.31
2022-07-29T16:10:49.884Z,101772.72
2022-07-29T16:13:17.816Z,101776.25
2022-07-29T16:16:02.463Z,101764.69
2022-07-29T16:18:30.743Z,101766.97
2022-07-29T16:20:59.775Z,101771.03
2022-07-29T16:23:27.089Z,101766.31
2022-07-29T16:26:00.095Z,101765.06
2022-07-29T16:28:29.432Z,101768.06
2022-07-29T16:30:57.461Z,101758.78
2022-07-29T16:33:24.877Z,101749.84
2022-07-29T16:35:53.206Z,101758.88
2022-07-29T16:38:21.482Z,101758.19
2022-07-29T16:40:49.023Z,101773.44
2022-07-29T16:43:17.076Z,101784.19
2022-07-29T16:45:46.176Z,101789.31
2022-07-29T16:48:14.987Z,101787.34
2022-07-29T16:50:45.964Z,101768.56
2022-07-29T16:53:13.272Z,101765.34
2022-07-29T16:55:42.403Z,101765.59
2022-07-29T16:58:10.702Z,101760.06
2022-07-29T17:00:38.483Z,101756.50
2022-07-29T17:03:05.972Z,101749.97
2022-07-29T17:05:52.226Z,101752.19
2022-07-29T17:08:21.228Z,101745.41
2022-07-29T17:10:48.797Z,101748.09
2022-07-29T17:13:16.426Z,101746.19
2022-07-29T17:15:44.176Z,101740.97
2022-07-29T17:18:12.468Z,101741.41
2022-07-29T17:20:41.995Z,101742.69
2022-07-29T17:23:09.747Z,101742.53
2022-07-29T17:25:37.347Z,101746.59
2022-07-29T17:28:04.841Z,101747.53
2022-07-29T17:30:32.198Z,101749.72
2022-07-29T17:33:00.211Z,101751.09
2022-07-29T17:35:46.346Z,101747.28
2022-07-29T17:38:14.073Z,101738.53
2022-07-29T17:40:41.326Z,101744.50
2022-07-29T17:43:09.537Z,101744.16
2022-07-29T17:45:49.786Z,101742.59
2022-07-29T17:48:19.447Z,101740.28
2022-07-29T17:50:48.465Z,101740.50
2022-07-29T17:53:16.762Z,101733.81
2022-07-29T17:55:46.363Z,101734.94
2022-07-29T17:58:13.899Z,101737.06
2022-07-29T18:00:41.984Z,101734.34
2022-07-29T18:03:09.604Z,101730.31
2022-07-29T18:05:37.348Z,101728.34
2022-07-29T18:08:05.083Z,101729.53
2022-07-29T18:10:32.289Z,101734.03
2022-07-29T18:13:00.028Z,101740.22
2022-07-29T18:15:27.398Z,101741.63
2022-07-29T18:17:57.326Z,101733.75
2022-07-29T18:20:26.338Z,101745.22
2022-07-29T18:22:53.480Z,101735.94
2022-07-29T18:25:21.313Z,101744.50
2022-07-29T18:27:48.507Z,101734.44
2022-07-29T18:30:16.626Z,101744.88
2022-07-29T18:32:59.047Z,101737.16
2022-07-29T18:35:26.898Z,101737.53
2022-07-29T18:38:02.168Z,101746.00
2022-07-29T18:40:30.548Z,101744.75
2022-07-29T18:42:57.933Z,101739.13
2022-07-29T18:45:28.485Z,101736.34
2022-07-29T18:47:57.439Z,101742.13
2022-07-29T18:50:29.244Z,101731.13
2022-07-29T18:52:59.097Z,101742.84
2022-07-29T18:55:27.126Z,101744.00
2022-07-29T18:57:56.692Z,101745.59
2022-07-29T19:00:26.346Z,101752.91
2022-07-29T19:02:53.562Z,101755.44
2022-07-29T19:05:21.946Z,101755.44
2022-07-29T19:07:49.408Z,101743.88
2022-07-29T19:10:17.007Z,101755.63
2022-07-29T19:12:44.307Z,101752.41
2022-07-29T19:15:12.119Z,101752.34
2022-07-29T19:17:39.869Z,101750.47
2022-07-29T19:20:08.189Z,101761.50
2022-07-29T19:22:35.170Z,101762.53
2022-07-29T19:25:02.668Z,101760.38
2022-07-29T19:27:29.834Z,101767.75
2022-07-29T19:29:59.420Z,101766.28
2022-07-29T19:32:26.976Z,101771.16
2022-07-29T19:35:12.870Z,101767.19
2022-07-29T19:37:39.815Z,101771.75
2022-07-29T19:40:07.548Z,101774.75
2022-07-29T19:42:35.212Z,101782.91
2022-07-29T19:45:02.639Z,101775.03
2022-07-29T19:47:29.560Z,101774.91
2022-07-29T19:49:56.558Z,101779.09
2022-07-29T19:52:23.772Z,101788.06
2022-07-29T19:54:51.279Z,101785.34
2022-07-29T19:57:18.273Z,101781.44
2022-07-29T19:59:45.919Z,101784.81
2022-07-29T20:02:13.441Z,101777.31
2022-07-29T20:04:40.461Z,101779.41
2022-07-29T20:07:07.879Z,101783.09
2022-07-29T20:09:34.882Z,101791.59
2022-07-29T20:12:02.062Z,101785.63
2022-07-29T20:14:29.199Z,101785.22
2022-07-29T20:16:56.234Z,101793.28
2022-07-29T20:19:23.145Z,101793.31
2022-07-29T20:21:52.050Z,101792.59
2022-07-29T20:24:21.147Z,101791.78
2022-07-29T20:26:48.807Z,101790.63
2022-07-29T20:29:16.603Z,101794.97
2022-07-29T20:31:43.646Z,101793.38
2022-07-29T20:34:10.825Z,101802.16
2022-07-29T20:36:38.171Z,101801.34
2022-07-29T20:39:05.199Z,101799.28
2022-07-29T20:41:34.026Z,101794.09
2022-07-29T20:44:04.707Z,101790.91
2022-07-29T20:46:31.707Z,101789.31
2022-07-29T20:48:58.774Z,101801.34
2022-07-29T20:51:26.457Z,101801.38
2022-07-29T20:53:53.367Z,101796.97
2022-07-29T20:56:20.860Z,101802.19
2022-07-29T20:58:47.995Z,101814.59
2022-07-29T21:01:15.245Z,101802.22
2022-07-29T21:03:42.192Z,101805.84
2022-07-29T21:06:09.322Z,101803.88
2022-07-29T21:08:36.684Z,101806.72
2022-07-29T21:11:04.371Z,101818.78
2022-07-29T21:13:38.113Z,101818.78
2022-07-29T21:16:14.908Z,101814.00
2022-07-29T21:18:46.212Z,101811.25
2022-07-29T21:21:17.085Z,101810.44
2022-07-29T21:23:44.658Z,101807.28
2022-07-29T21:26:13.030Z,101812.50
2022-07-29T21:28:40.821Z,101809.72
2022-07-29T21:31:13.494Z,101818.94
2022-07-29T21:33:42.313Z,101812.94
2022-07-29T21:38:57.203Z,101821.00
2022-07-29T21:41:24.181Z,101811.41
2022-07-29T21:43:51.551Z,101811.00
2022-07-29T21:46:21.031Z,101815.00
2022-07-29T21:48:51.698Z,101819.44
2022-07-29T21:51:18.599Z,101820.22
2022-07-29T21:53:45.735Z,101817.03
2022-07-29T21:56:14.957Z,101819.84
2022-07-29T21:58:42.349Z,101812.66
2022-07-29T22:01:10.247Z,101817.06
2022-07-29T22:03:37.279Z,101817.84
2022-07-29T22:06:04.487Z,101820.22
2022-07-29T22:08:31.511Z,101815.03
2022-07-29T22:10:58.906Z,101816.66
2022-07-29T22:13:25.949Z,101816.25
2022-07-29T22:15:52.987Z,101815.47
2022-07-29T22:18:21.380Z,101810.22
2022-07-29T22:20:50.381Z,101809.06
2022-07-29T22:23:17.330Z,101801.03
2022-07-29T22:25:44.279Z,101807.00
2022-07-29T22:28:11.282Z,101797.41
2022-07-29T22:30:38.337Z,101797.34
2022-07-29T22:33:05.252Z,101799.31
2022-07-29T22:35:32.130Z,101802.06
2022-07-29T22:37:59.426Z,101795.25
2022-07-29T22:40:30.426Z,101799.97
2022-07-29T22:42:57.878Z,101798.34
2022-07-29T22:45:24.876Z,101795.13
2022-07-29T22:47:57.426Z,101807.88
2022-07-29T22:50:26.593Z,101800.22
2022-07-29T22:52:53.540Z,101804.56
2022-07-29T22:55:21.153Z,101804.50
2022-07-29T22:57:48.244Z,101792.91
2022-07-29T23:00:15.382Z,101802.09
2022-07-29T23:02:42.313Z,101792.88
2022-07-29T23:05:10.546Z,101799.25
2022-07-29T23:07:37.877Z,101804.44
2022-07-29T23:10:05.294Z,101793.25
2022-07-29T23:12:32.106Z,101799.19
2022-07-29T23:14:59.084Z,101786.78
2022-07-29T23:17:26.150Z,101791.94
2022-07-29T23:19:53.108Z,101791.03
2022-07-29T23:22:19.943Z,101784.13
2022-07-29T23:24:46.939Z,101784.91
2022-07-29T23:27:13.763Z,101783.28
2022-07-29T23:29:40.683Z,101776.84
2022-07-29T23:32:07.732Z,101786.44
2022-07-29T23:34:34.747Z,101778.91
2022-07-29T23:37:02.479Z,101784.50
2022-07-29T23:39:29.628Z,101783.28
2022-07-29T23:41:56.649Z,101775.69
2022-07-29T23:44:24.402Z,101782.03
2022-07-29T23:46:51.807Z,101779.13
2022-07-29T23:49:18.918Z,101781.00
2022-07-29T23:51:46.108Z,101782.94
2022-07-29T23:54:13.190Z,101772.94
2022-07-29T23:56:40.465Z,101775.69
2022-07-29T23:59:07.334Z,101771.69
